sensor_id;sensor_type;location;lat;lon;timestamp;pressure;altitude;pressure_sealevel;temperature
15333;BMP180;7766;51.534;6.722;2022-12-20T00:00:35;100921.75;;;11.09
15333;BMP180;7766;51.534;6.722;2022-12-20T00:01:36;100919.56;;;11.12
15333;BMP180;7766;51.534;6.722;2022-12-20T00:02:37;100920.22;;;11.14
15333;BMP180;7766;51.534;6.722;2022-12-20T00:03:38;100913.69;;;11.10
15333;BMP180;7766;51.534;6.722;2022-12-20T00:04:40;100923.03;;;11.13
15333;BMP180;7766;51.534;6.722;2022-12-20T00:05:42;100920.47;;;11.05
15333;BMP180;7766;51.534;6.722;2022-12-20T00:06:43;100914.31;;;11.12
15333;BMP180;7766;51.534;6.722;2022-12-20T00:07:44;100909.34;;;11.17
15333;BMP180;7766;51.534;6.722;2022-12-20T00:08:45;100912.97;;;11.16
15333;BMP180;7766;51.534;6.722;2022-12-20T00:09:46;100905.44;;;11.13
15333;BMP180;7766;51.534;6.722;2022-12-20T00:10:47;100905.44;;;11.13
15333;BMP180;7766;51.534;6.722;2022-12-20T00:11:47;100910.06;;;11.11
15333;BMP180;7766;51.534;6.722;2022-12-20T00:12:48;100903.22;;;11.25
15333;BMP180;7766;51.534;6.722;2022-12-20T00:13:49;100905.72;;;11.18
15333;BMP180;7766;51.534;6.722;2022-12-20T00:14:50;100894.84;;;11.21
15333;BMP180;7766;51.534;6.722;2022-12-20T00:16:06;100891.88;;;11.24
15333;BMP180;7766;51.534;6.722;2022-12-20T00:17:07;100893.97;;;11.28
15333;BMP180;7766;51.534;6.722;2022-12-20T00:18:08;100889.88;;;11.26
15333;BMP180;7766;51.534;6.722;2022-12-20T00:19:10;100885.25;;;11.28
15333;BMP180;7766;51.534;6.722;2022-12-20T00:20:11;100884.00;;;11.24
15333;BMP180;7766;51.534;6.722;2022-12-20T00:21:13;100892.84;;;11.23
15333;BMP180;7766;51.534;6.722;2022-12-20T00:22:15;100895.66;;;11.36
15333;BMP180;7766;51.534;6.722;2022-12-20T00:23:16;100883.81;;;11.40
15333;BMP180;7766;51.534;6.722;2022-12-20T00:24:17;100882.72;;;11.34
15333;BMP180;7766;51.534;6.722;2022-12-20T00:25:18;100884.31;;;11.49
15333;BMP180;7766;51.534;6.722;2022-12-20T00:26:24;100879.06;;;11.49
15333;BMP180;7766;51.534;6.722;2022-12-20T00:27:25;100884.94;;;11.51
15333;BMP180;7766;51.534;6.722;2022-12-20T00:28:26;100881.59;;;11.57
15333;BMP180;7766;51.534;6.722;2022-12-20T00:29:26;100879.97;;;11.56
15333;BMP180;7766;51.534;6.722;2022-12-20T00:30:27;100875.59;;;11.63
15333;BMP180;7766;51.534;6.722;2022-12-20T00:31:29;100874.63;;;11.64
15333;BMP180;7766;51.534;6.722;2022-12-20T00:32:30;100880.41;;;11.59
15333;BMP180;7766;51.534;6.722;2022-12-20T00:33:32;100857.38;;;11.61
15333;BMP180;7766;51.534;6.722;2022-12-20T00:34:33;100865.97;;;11.70
15333;BMP180;7766;51.534;6.722;2022-12-20T00:35:34;100860.06;;;11.68
15333;BMP180;7766;51.534;6.722;2022-12-20T00:36:35;100867.59;;;11.71
15333;BMP180;7766;51.534;6.722;2022-12-20T00:37:37;100874.06;;;11.68
15333;BMP180;7766;51.534;6.722;2022-12-20T00:38:38;100873.50;;;11.73
15333;BMP180;7766;51.534;6.722;2022-12-20T00:39:39;100864.94;;;11.85
15333;BMP180;7766;51.534;6.722;2022-12-20T00:40:40;100860.88;;;11.82
15333;BMP180;7766;51.534;6.722;2022-12-20T00:41:41;100859.84;;;11.83
15333;BMP180;7766;51.534;6.722;2022-12-20T00:42:42;100855.16;;;11.79
15333;BMP180;7766;51.534;6.722;2022-12-20T00:43:44;100860.88;;;11.82
15333;BMP180;7766;51.534;6.722;2022-12-20T00:44:45;100863.44;;;11.96
15333;BMP180;7766;51.534;6.722;2022-12-20T00:45:45;100864.38;;;11.89
15333;BMP180;7766;51.534;6.722;2022-12-20T00:46:46;100861.81;;;11.95
15333;BMP180;7766;51.534;6.722;2022-12-20T00:47:47;100859.47;;;11.86
15333;BMP180;7766;51.534;6.722;2022-12-20T00:48:48;100864.84;;;11.78
15333;BMP180;7766;51.534;6.722;2022-12-20T00:49:49;100876.78;;;11.74
15333;BMP180;7766;51.534;6.722;2022-12-20T00:50:51;100877.31;;;11.70
15333;BMP180;7766;51.534;6.722;2022-12-20T00:51:52;100877.88;;;11.66
15333;BMP180;7766;51.534;6.722;2022-12-20T00:52:53;100874.63;;;11.64
15333;BMP180;7766;51.534;6.722;2022-12-20T00:53:55;100871.31;;;11.62
15333;BMP180;7766;51.534;6.722;2022-12-20T00:54:56;100866.25;;;11.74
15333;BMP180;7766;51.534;6.722;2022-12-20T00:55:58;100869.97;;;11.66
15333;BMP180;7766;51.534;6.722;2022-12-20T00:56:59;100858.47;;;11.67
15333;BMP180;7766;51.534;6.722;2022-12-20T00:58:00;100864.72;;;11.66
15333;BMP180;7766;51.534;6.722;2022-12-20T00:59:01;100853.72;;;11.62
15333;BMP180;7766;51.534;6.722;2022-12-20T01:00:02;100854.53;;;11.77
15333;BMP180;7766;51.534;6.722;2022-12-20T01:01:06;100858.72;;;11.72
15333;BMP180;7766;51.534;6.722;2022-12-20T01:02:07;100854.56;;;11.63
15333;BMP180;7766;51.534;6.722;2022-12-20T01:03:08;100865.44;;;11.60
15333;BMP180;7766;51.534;6.722;2022-12-20T01:04:09;100859.09;;;11.69
15333;BMP180;7766;51.534;6.722;2022-12-20T01:05:10;100864.25;;;11.76
15333;BMP180;7766;51.534;6.722;2022-12-20T01:06:11;100867.25;;;11.74
15333;BMP180;7766;51.534;6.722;2022-12-20T01:07:12;100862.72;;;11.68
15333;BMP180;7766;51.534;6.722;2022-12-20T01:08:13;100858.00;;;11.63
15333;BMP180;7766;51.534;6.722;2022-12-20T01:09:15;100858.63;;;11.51
15333;BMP180;7766;51.534;6.722;2022-12-20T01:10:16;100858.38;;;11.46
15333;BMP180;7766;51.534;6.722;2022-12-20T01:11:20;100853.00;;;11.54
15333;BMP180;7766;51.534;6.722;2022-12-20T01:12:21;100847.03;;;11.60
15333;BMP180;7766;51.534;6.722;2022-12-20T01:13:22;100845.56;;;11.58
15333;BMP180;7766;51.534;6.722;2022-12-20T01:14:23;100856.09;;;11.58
15333;BMP180;7766;51.534;6.722;2022-12-20T01:15:24;100853.66;;;11.56
15333;BMP180;7766;51.534;6.722;2022-12-20T01:16:35;100856.84;;;11.52
15333;BMP180;7766;51.534;6.722;2022-12-20T01:17:37;100857.41;;;11.47
15333;BMP180;7766;51.534;6.722;2022-12-20T01:18:38;100848.78;;;11.53
15333;BMP180;7766;51.534;6.722;2022-12-20T01:19:39;100841.50;;;11.55
15333;BMP180;7766;51.534;6.722;2022-12-20T01:20:40;100851.56;;;11.52
15333;BMP180;7766;51.534;6.722;2022-12-20T01:21:41;100855.38;;;11.49
15333;BMP180;7766;51.534;6.722;2022-12-20T01:22:45;100850.22;;;11.42
15333;BMP180;7766;51.534;6.722;2022-12-20T01:23:46;100864.56;;;11.53
15333;BMP180;7766;51.534;6.722;2022-12-20T01:24:47;100864.09;;;11.50
15333;BMP180;7766;51.534;6.722;2022-12-20T01:25:50;100864.22;;;11.42
15333;BMP180;7766;51.534;6.722;2022-12-20T01:26:51;100854.66;;;11.41
15333;BMP180;7766;51.534;6.722;2022-12-20T01:27:52;100855.94;;;11.45
15333;BMP180;7766;51.534;6.722;2022-12-20T01:28:55;100846.97;;;11.40
15333;BMP180;7766;51.534;6.722;2022-12-20T01:29:56;100853.13;;;11.46
15333;BMP180;7766;51.534;6.722;2022-12-20T01:30:57;100860.38;;;11.44
15333;BMP180;7766;51.534;6.722;2022-12-20T01:31:58;100857.13;;;11.43
15333;BMP180;7766;51.534;6.722;2022-12-20T01:32:59;100856.94;;;11.44
15333;BMP180;7766;51.534;6.722;2022-12-20T01:34:01;100866.72;;;11.50
15333;BMP180;7766;51.534;6.722;2022-12-20T01:35:02;100858.94;;;11.42
15333;BMP180;7766;51.534;6.722;2022-12-20T01:36:09;100854.19;;;11.52
15333;BMP180;7766;51.534;6.722;2022-12-20T01:37:10;100860.19;;;11.60
15333;BMP180;7766;51.534;6.722;2022-12-20T01:38:11;100860.28;;;11.52
15333;BMP180;7766;51.534;6.722;2022-12-20T01:39:16;100848.78;;;11.53
15333;BMP180;7766;51.534;6.722;2022-12-20T01:40:17;100843.25;;;11.48
15333;BMP180;7766;51.534;6.722;2022-12-20T01:41:19;100848.13;;;11.51
15333;BMP180;7766;51.534;6.722;2022-12-20T01:42:21;100848.41;;;11.56
15333;BMP180;7766;51.534;6.722;2022-12-20T01:43:22;100852.41;;;11.52
15333;BMP180;7766;51.534;6.722;2022-12-20T01:45:29;100850.75;;;11.51
15333;BMP180;7766;51.534;6.722;2022-12-20T01:46:34;100854.03;;;11.53
15333;BMP180;7766;51.534;6.722;2022-12-20T01:47:36;100849.66;;;11.60
15333;BMP180;7766;51.534;6.722;2022-12-20T01:48:38;100856.94;;;11.58
15333;BMP180;7766;51.534;6.722;2022-12-20T01:49:44;100854.09;;;11.59
15333;BMP180;7766;51.534;6.722;2022-12-20T01:50:48;100840.69;;;11.55
15333;BMP180;7766;51.534;6.722;2022-12-20T01:51:55;100846.91;;;11.68
15333;BMP180;7766;51.534;6.722;2022-12-20T01:52:57;100839.63;;;11.70
15333;BMP180;7766;51.534;6.722;2022-12-20T01:54:16;100844.91;;;11.70
15333;BMP180;7766;51.534;6.722;2022-12-20T01:55:24;100830.75;;;11.71
15333;BMP180;7766;51.534;6.722;2022-12-20T01:56:26;100825.94;;;11.74
15333;BMP180;7766;51.534;6.722;2022-12-20T01:58:41;100830.97;;;11.69
15333;BMP180;7766;51.534;6.722;2022-12-20T01:59:45;100840.09;;;11.73
15333;BMP180;7766;51.534;6.722;2022-12-20T02:00:47;100835.28;;;11.76
15333;BMP180;7766;51.534;6.722;2022-12-20T02:01:48;100835.28;;;11.76
15333;BMP180;7766;51.534;6.722;2022-12-20T02:02:50;100834.91;;;11.79
15333;BMP180;7766;51.534;6.722;2022-12-20T02:03:51;100845.19;;;11.74
15333;BMP180;7766;51.534;6.722;2022-12-20T02:04:54;100837.91;;;11.76
15333;BMP180;7766;51.534;6.722;2022-12-20T02:05:55;100837.72;;;11.78
15333;BMP180;7766;51.534;6.722;2022-12-20T02:06:56;100836.34;;;11.82
15333;BMP180;7766;51.534;6.722;2022-12-20T02:07:57;100830.00;;;11.76
15333;BMP180;7766;51.534;6.722;2022-12-20T02:08:59;100827.28;;;11.70
15333;BMP180;7766;51.534;6.722;2022-12-20T02:10:02;100820.16;;;11.64
15333;BMP180;7766;51.534;6.722;2022-12-20T02:12:23;100821.22;;;11.70
15333;BMP180;7766;51.534;6.722;2022-12-20T02:16:25;100833.13;;;11.66
15333;BMP180;7766;51.534;6.722;2022-12-20T02:18:41;100824.25;;;11.67
15333;BMP180;7766;51.534;6.722;2022-12-20T02:20:06;100830.69;;;11.64
15333;BMP180;7766;51.534;6.722;2022-12-20T02:27:45;100820.44;;;11.55
15333;BMP180;7766;51.534;6.722;2022-12-20T02:30:17;100830.69;;;11.64
15333;BMP180;7766;51.534;6.722;2022-12-20T02:31:26;100834.38;;;11.70
15333;BMP180;7766;51.534;6.722;2022-12-20T02:32:41;100838.84;;;11.69
15333;BMP180;7766;51.534;6.722;2022-12-20T02:33:46;100836.38;;;11.68
15333;BMP180;7766;51.534;6.722;2022-12-20T02:34:48;100826.78;;;11.60
15333;BMP180;7766;51.534;6.722;2022-12-20T02:35:50;100824.78;;;11.62
15333;BMP180;7766;51.534;6.722;2022-12-20T02:36:51;100817.72;;;11.63
15333;BMP180;7766;51.534;6.722;2022-12-20T02:37:57;100809.81;;;11.63
15333;BMP180;7766;51.534;6.722;2022-12-20T02:38:59;100818.69;;;11.62
15333;BMP180;7766;51.534;6.722;2022-12-20T02:40:01;100815.56;;;11.52
15333;BMP180;7766;51.534;6.722;2022-12-20T02:41:18;100816.63;;;11.58
15333;BMP180;7766;51.534;6.722;2022-12-20T02:42:23;100817.25;;;11.59
15333;BMP180;7766;51.534;6.722;2022-12-20T02:43:28;100822.09;;;11.56
15333;BMP180;7766;51.534;6.722;2022-12-20T02:45:15;100827.97;;;11.72
15333;BMP180;7766;51.534;6.722;2022-12-20T02:46:17;100825.34;;;11.58
15333;BMP180;7766;51.534;6.722;2022-12-20T02:47:26;100827.97;;;11.58
15333;BMP180;7766;51.534;6.722;2022-12-20T02:48:31;100825.34;;;11.58
15333;BMP180;7766;51.534;6.722;2022-12-20T02:49:37;100834.59;;;11.54
15333;BMP180;7766;51.534;6.722;2022-12-20T02:50:51;100820.00;;;11.52
15333;BMP180;7766;51.534;6.722;2022-12-20T02:51:54;100819.19;;;11.51
15333;BMP180;7766;51.534;6.722;2022-12-20T02:52:56;100824.88;;;11.55
15333;BMP180;7766;51.534;6.722;2022-12-20T02:53:59;100819.72;;;11.61
15333;BMP180;7766;51.534;6.722;2022-12-20T02:55:02;100810.53;;;11.57
15333;BMP180;7766;51.534;6.722;2022-12-20T02:57:55;100831.84;;;11.62
15333;BMP180;7766;51.534;6.722;2022-12-20T03:00:07;100821.19;;;11.49
15333;BMP180;7766;51.534;6.722;2022-12-20T03:01:20;100831.78;;;11.56
15333;BMP180;7766;51.534;6.722;2022-12-20T03:02:23;100837.22;;;11.54
15333;BMP180;7766;51.534;6.722;2022-12-20T03:03:25;100854.56;;;11.49
15333;BMP180;7766;51.534;6.722;2022-12-20T03:04:29;100835.00;;;11.37
15333;BMP180;7766;51.534;6.722;2022-12-20T03:05:33;100831.34;;;11.38
15333;BMP180;7766;51.534;6.722;2022-12-20T03:06:35;100842.97;;;11.43
15333;BMP180;7766;51.534;6.722;2022-12-20T03:07:36;100824.38;;;11.31
15333;BMP180;7766;51.534;6.722;2022-12-20T03:08:37;100827.47;;;11.34
15333;BMP180;7766;51.534;6.722;2022-12-20T03:09:40;100826.28;;;11.37
15333;BMP180;7766;51.534;6.722;2022-12-20T03:10:41;100831.09;;;11.33
15333;BMP180;7766;51.534;6.722;2022-12-20T03:11:42;100835.94;;;11.30
15333;BMP180;7766;51.534;6.722;2022-12-20T03:12:43;100825.47;;;11.36
15333;BMP180;7766;51.534;6.722;2022-12-20T03:13:45;100836.63;;;11.38
15333;BMP180;7766;51.534;6.722;2022-12-20T03:14:45;100825.00;;;11.33
15333;BMP180;7766;51.534;6.722;2022-12-20T03:15:46;100826.03;;;11.32
15333;BMP180;7766;51.534;6.722;2022-12-20T03:16:47;100826.50;;;11.35
15333;BMP180;7766;51.534;6.722;2022-12-20T03:17:48;100828.28;;;11.35
15333;BMP180;7766;51.534;6.722;2022-12-20T03:18:49;100829.81;;;11.43
15333;BMP180;7766;51.534;6.722;2022-12-20T03:19:50;100824.28;;;11.39
15333;BMP180;7766;51.534;6.722;2022-12-20T03:20:51;100826.38;;;11.43
15333;BMP180;7766;51.534;6.722;2022-12-20T03:21:52;100832.44;;;11.43
15333;BMP180;7766;51.534;6.722;2022-12-20T03:22:53;100825.09;;;11.53
15333;BMP180;7766;51.534;6.722;2022-12-20T03:23:54;100805.84;;;11.53
15333;BMP180;7766;51.534;6.722;2022-12-20T03:24:55;100802.16;;;11.47
15333;BMP180;7766;51.534;6.722;2022-12-20T03:25:56;100806.31;;;11.42
15333;BMP180;7766;51.534;6.722;2022-12-20T03:26:57;100820.94;;;11.44
15333;BMP180;7766;51.534;6.722;2022-12-20T03:27:57;100811.84;;;11.47
15333;BMP180;7766;51.534;6.722;2022-12-20T03:28:58;100805.16;;;11.44
15333;BMP180;7766;51.534;6.722;2022-12-20T03:29:59;100802.50;;;11.44
15333;BMP180;7766;51.534;6.722;2022-12-20T03:31:00;100815.28;;;11.47
15333;BMP180;7766;51.534;6.722;2022-12-20T03:32:01;100812.91;;;11.52
15333;BMP180;7766;51.534;6.722;2022-12-20T03:33:02;100809.47;;;11.52
15333;BMP180;7766;51.534;6.722;2022-12-20T03:34:03;100801.94;;;11.49
15333;BMP180;7766;51.534;6.722;2022-12-20T03:35:05;100796.16;;;11.53
15333;BMP180;7766;51.534;6.722;2022-12-20T03:36:06;100792.31;;;11.56
15333;BMP180;7766;51.534;6.722;2022-12-20T03:37:07;100780.50;;;11.66
15333;BMP180;7766;51.534;6.722;2022-12-20T03:38:08;100785.88;;;11.58
15333;BMP180;7766;51.534;6.722;2022-12-20T03:39:09;100780.38;;;11.53
15333;BMP180;7766;51.534;6.722;2022-12-20T03:40:10;100782.25;;;11.59
15333;BMP180;7766;51.534;6.722;2022-12-20T03:41:11;100788.31;;;11.59
15333;BMP180;7766;51.534;6.722;2022-12-20T03:42:12;100777.97;;;11.58
15333;BMP180;7766;51.534;6.722;2022-12-20T03:43:13;100792.13;;;11.57
15333;BMP180;7766;51.534;6.722;2022-12-20T03:44:14;100785.63;;;11.53
15333;BMP180;7766;51.534;6.722;2022-12-20T03:45:15;100786.88;;;11.57
15333;BMP180;7766;51.534;6.722;2022-12-20T03:46:17;100778.97;;;11.57
15333;BMP180;7766;51.534;6.722;2022-12-20T03:47:17;100777.00;;;11.59
15333;BMP180;7766;51.534;6.722;2022-12-20T03:48:18;100783.88;;;11.60
15333;BMP180;7766;51.534;6.722;2022-12-20T03:49:19;100792.94;;;11.58
15333;BMP180;7766;51.534;6.722;2022-12-20T03:50:20;100787.59;;;11.51
15333;BMP180;7766;51.534;6.722;2022-12-20T03:51:21;100784.44;;;11.56
15333;BMP180;7766;51.534;6.722;2022-12-20T03:52:22;100791.72;;;11.54
15333;BMP180;7766;51.534;6.722;2022-12-20T03:53:23;100789.59;;;11.49
15333;BMP180;7766;51.534;6.722;2022-12-20T03:54:24;100789.88;;;11.54
15333;BMP180;7766;51.534;6.722;2022-12-20T03:55:26;100793.03;;;11.64
15333;BMP180;7766;51.534;6.722;2022-12-20T03:56:27;100791.75;;;11.60
15333;BMP180;7766;51.534;6.722;2022-12-20T03:57:28;100797.84;;;11.60
15333;BMP180;7766;51.534;6.722;2022-12-20T03:58:29;100792.50;;;11.54
15333;BMP180;7766;51.534;6.722;2022-12-20T03:59:30;100786.50;;;11.60
15333;BMP180;7766;51.534;6.722;2022-12-20T04:00:31;100779.63;;;11.59
15333;BMP180;7766;51.534;6.722;2022-12-20T04:01:32;100798.53;;;11.48
15333;BMP180;7766;51.534;6.722;2022-12-20T04:02:36;100791.72;;;11.54
15333;BMP180;7766;51.534;6.722;2022-12-20T04:03:36;100798.69;;;11.47
15333;BMP180;7766;51.534;6.722;2022-12-20T04:04:37;100799.59;;;11.54
15333;BMP180;7766;51.534;6.722;2022-12-20T04:05:38;100807.28;;;11.55
15333;BMP180;7766;51.534;6.722;2022-12-20T04:06:40;100795.59;;;11.43
15333;BMP180;7766;51.534;6.722;2022-12-20T04:07:41;100797.63;;;11.42
15333;BMP180;7766;51.534;6.722;2022-12-20T04:08:42;100804.53;;;11.43
15333;BMP180;7766;51.534;6.722;2022-12-20T04:09:43;100791.38;;;11.43
15333;BMP180;7766;51.534;6.722;2022-12-20T04:10:44;100794.34;;;11.40
15333;BMP180;7766;51.534;6.722;2022-12-20T04:12:04;100794.91;;;11.35
15333;BMP180;7766;51.534;6.722;2022-12-20T04:13:05;100791.72;;;11.40
15333;BMP180;7766;51.534;6.722;2022-12-20T04:14:06;100786.72;;;11.44
15333;BMP180;7766;51.534;6.722;2022-12-20T04:15:07;100785.91;;;11.44
15333;BMP180;7766;51.534;6.722;2022-12-20T04:16:09;100793.38;;;11.41
15333;BMP180;7766;51.534;6.722;2022-12-20T04:17:10;100789.38;;;11.30
15333;BMP180;7766;51.534;6.722;2022-12-20T04:18:11;100782.25;;;11.25
15333;BMP180;7766;51.534;6.722;2022-12-20T04:19:12;100778.44;;;11.27
15333;BMP180;7766;51.534;6.722;2022-12-20T04:20:15;100786.31;;;11.27
15333;BMP180;7766;51.534;6.722;2022-12-20T04:21:28;100773.88;;;11.21
15333;BMP180;7766;51.534;6.722;2022-12-20T04:22:29;100786.75;;;11.16
15333;BMP180;7766;51.534;6.722;2022-12-20T04:23:30;100789.75;;;11.13
15333;BMP180;7766;51.534;6.722;2022-12-20T04:24:31;100773.88;;;11.21
15333;BMP180;7766;51.534;6.722;2022-12-20T04:25:32;100778.31;;;11.21
15333;BMP180;7766;51.534;6.722;2022-12-20T04:26:32;100772.22;;;11.20
15333;BMP180;7766;51.534;6.722;2022-12-20T04:27:33;100792.84;;;11.17
15333;BMP180;7766;51.534;6.722;2022-12-20T04:28:35;100791.66;;;11.19
15333;BMP180;7766;51.534;6.722;2022-12-20T04:29:35;100791.81;;;11.18
15333;BMP180;7766;51.534;6.722;2022-12-20T04:30:36;100785.31;;;11.14
15333;BMP180;7766;51.534;6.722;2022-12-20T04:31:37;100777.47;;;11.20
15333;BMP180;7766;51.534;6.722;2022-12-20T04:32:38;100778.78;;;11.24
15333;BMP180;7766;51.534;6.722;2022-12-20T04:33:39;100782.38;;;11.23
15333;BMP180;7766;51.534;6.722;2022-12-20T04:34:41;100787.31;;;11.26
15333;BMP180;7766;51.534;6.722;2022-12-20T04:35:41;100781.69;;;11.29
15333;BMP180;7766;51.534;6.722;2022-12-20T04:36:42;100782.03;;;11.26
15333;BMP180;7766;51.534;6.722;2022-12-20T04:37:43;100790.94;;;11.25
15333;BMP180;7766;51.534;6.722;2022-12-20T04:38:44;100785.19;;;11.22
15333;BMP180;7766;51.534;6.722;2022-12-20T04:39:45;100781.41;;;11.24
15333;BMP180;7766;51.534;6.722;2022-12-20T04:40:50;100795.63;;;11.15
15333;BMP180;7766;51.534;6.722;2022-12-20T04:41:51;100804.97;;;11.18
15333;BMP180;7766;51.534;6.722;2022-12-20T04:42:52;100806.59;;;11.19
15333;BMP180;7766;51.534;6.722;2022-12-20T04:43:55;100801.50;;;11.17
15333;BMP180;7766;51.534;6.722;2022-12-20T04:44:57;100798.00;;;11.10
15333;BMP180;7766;51.534;6.722;2022-12-20T04:45:57;100801.00;;;11.08
15333;BMP180;7766;51.534;6.722;2022-12-20T04:46:58;100800.25;;;10.99
15333;BMP180;7766;51.534;6.722;2022-12-20T04:47:59;100807.69;;;10.96
15333;BMP180;7766;51.534;6.722;2022-12-20T04:49:00;100805.25;;;10.94
15333;BMP180;7766;51.534;6.722;2022-12-20T04:50:01;100809.44;;;10.89
15333;BMP180;7766;51.534;6.722;2022-12-20T04:51:02;100813.78;;;10.82
15333;BMP180;7766;51.534;6.722;2022-12-20T04:52:03;100804.16;;;10.89
15333;BMP180;7766;51.534;6.722;2022-12-20T04:53:23;100818.66;;;10.85
15333;BMP180;7766;51.534;6.722;2022-12-20T04:54:43;100814.13;;;10.79
15333;BMP180;7766;51.534;6.722;2022-12-20T04:55:44;100799.34;;;10.78
15333;BMP180;7766;51.534;6.722;2022-12-20T04:56:45;100799.56;;;10.77
15333;BMP180;7766;51.534;6.722;2022-12-20T04:57:45;100791.38;;;10.72
15333;BMP180;7766;51.534;6.722;2022-12-20T04:58:48;100801.88;;;10.72
15333;BMP180;7766;51.534;6.722;2022-12-20T04:59:49;100798.06;;;10.75
15333;BMP180;7766;51.534;6.722;2022-12-20T05:00:50;100791.38;;;10.72
15333;BMP180;7766;51.534;6.722;2022-12-20T05:01:54;100795.75;;;10.79
15333;BMP180;7766;51.534;6.722;2022-12-20T05:02:55;100789.81;;;10.78
15333;BMP180;7766;51.534;6.722;2022-12-20T05:03:56;100785.84;;;10.67
15333;BMP180;7766;51.534;6.722;2022-12-20T05:04:57;100771.09;;;10.66
15333;BMP180;7766;51.534;6.722;2022-12-20T05:05:58;100770.91;;;10.68
15333;BMP180;7766;51.534;6.722;2022-12-20T05:06:59;100775.16;;;10.69
15333;BMP180;7766;51.534;6.722;2022-12-20T05:08:00;100775.34;;;10.81
15333;BMP180;7766;51.534;6.722;2022-12-20T05:09:01;100780.25;;;10.84
15333;BMP180;7766;51.534;6.722;2022-12-20T05:10:02;100781.84;;;10.85
15333;BMP180;7766;51.534;6.722;2022-12-20T05:11:04;100778.44;;;10.85
15333;BMP180;7766;51.534;6.722;2022-12-20T05:12:06;100779.41;;;10.84
15333;BMP180;7766;51.534;6.722;2022-12-20T05:13:08;100775.16;;;10.83
15333;BMP180;7766;51.534;6.722;2022-12-20T05:14:09;100775.81;;;10.85
15333;BMP180;7766;51.534;6.722;2022-12-20T05:15:10;100775.81;;;10.85
15333;BMP180;7766;51.534;6.722;2022-12-20T05:16:12;100781.22;;;10.83
15333;BMP180;7766;51.534;6.722;2022-12-20T05:17:13;100778.25;;;10.86
15333;BMP180;7766;51.534;6.722;2022-12-20T05:18:14;100779.88;;;10.87
15333;BMP180;7766;51.534;6.722;2022-12-20T05:19:15;100756.31;;;10.79
15333;BMP180;7766;51.534;6.722;2022-12-20T05:20:16;100766.84;;;10.79
15333;BMP180;7766;51.534;6.722;2022-12-20T05:21:17;100762.75;;;10.77
15333;BMP180;7766;51.534;6.722;2022-12-20T05:22:36;100763.84;;;10.82
15333;BMP180;7766;51.534;6.722;2022-12-20T05:23:55;100768.44;;;10.80
15333;BMP180;7766;51.534;6.722;2022-12-20T05:25:15;100753.97;;;10.84
15333;BMP180;7766;51.534;6.722;2022-12-20T05:26:36;100757.56;;;10.83
15333;BMP180;7766;51.534;6.722;2022-12-20T05:27:37;100751.69;;;10.81
15333;BMP180;7766;51.534;6.722;2022-12-20T05:28:38;100751.84;;;10.80
15333;BMP180;7766;51.534;6.722;2022-12-20T05:29:39;100749.06;;;10.81
15333;BMP180;7766;51.534;6.722;2022-12-20T05:30:40;100749.22;;;10.80
15333;BMP180;7766;51.534;6.722;2022-12-20T05:31:41;100745.81;;;10.79
15333;BMP180;7766;51.534;6.722;2022-12-20T05:32:42;100747.25;;;10.82
15333;BMP180;7766;51.534;6.722;2022-12-20T05:33:43;100742.63;;;10.84
15333;BMP180;7766;51.534;6.722;2022-12-20T05:34:45;100740.19;;;10.82
15333;BMP180;7766;51.534;6.722;2022-12-20T05:35:45;100733.91;;;10.83
15333;BMP180;7766;51.534;6.722;2022-12-20T05:36:46;100732.94;;;10.84
15333;BMP180;7766;51.534;6.722;2022-12-20T05:37:47;100738.00;;;10.86
15333;BMP180;7766;51.534;6.722;2022-12-20T05:38:48;100732.22;;;10.90
15333;BMP180;7766;51.534;6.722;2022-12-20T05:39:49;100735.47;;;10.92
15333;BMP180;7766;51.534;6.722;2022-12-20T05:40:51;100735.72;;;10.97
15333;BMP180;7766;51.534;6.722;2022-12-20T05:41:52;100724.69;;;10.87
15333;BMP180;7766;51.534;6.722;2022-12-20T05:42:53;100726.97;;;10.90
15333;BMP180;7766;51.534;6.722;2022-12-20T05:43:54;100736.09;;;10.94
15333;BMP180;7766;51.534;6.722;2022-12-20T05:44:55;100741.97;;;10.96
15333;BMP180;7766;51.534;6.722;2022-12-20T05:45:56;100749.75;;;11.04
15333;BMP180;7766;51.534;6.722;2022-12-20T05:46:57;100739.44;;;11.02
15333;BMP180;7766;51.534;6.722;2022-12-20T05:47:57;100736.25;;;11.07
15333;BMP180;7766;51.534;6.722;2022-12-20T05:48:59;100728.56;;;11.05
15333;BMP180;7766;51.534;6.722;2022-12-20T05:49:59;100732.25;;;11.10
15333;BMP180;7766;51.534;6.722;2022-12-20T05:51:00;100718.38;;;11.16
15333;BMP180;7766;51.534;6.722;2022-12-20T05:52:02;100724.19;;;11.12
15333;BMP180;7766;51.534;6.722;2022-12-20T05:53:03;100717.94;;;11.13
15333;BMP180;7766;51.534;6.722;2022-12-20T05:54:04;100721.75;;;11.10
15333;BMP180;7766;51.534;6.722;2022-12-20T05:55:05;100714.31;;;11.14
15333;BMP180;7766;51.534;6.722;2022-12-20T05:56:06;100710.25;;;11.11
15333;BMP180;7766;51.534;6.722;2022-12-20T05:57:07;100712.03;;;11.11
15333;BMP180;7766;51.534;6.722;2022-12-20T05:58:08;100715.09;;;11.14
15333;BMP180;7766;51.534;6.722;2022-12-20T05:59:13;100713.28;;;11.15
15333;BMP180;7766;51.534;6.722;2022-12-20T06:00:14;100710.75;;;11.21
15333;BMP180;7766;51.534;6.722;2022-12-20T06:01:15;100722.25;;;11.20
15333;BMP180;7766;51.534;6.722;2022-12-20T06:02:16;100708.50;;;11.18
15333;BMP180;7766;51.534;6.722;2022-12-20T06:03:17;100714.75;;;11.17
15333;BMP180;7766;51.534;6.722;2022-12-20T06:04:18;100711.03;;;11.12
15333;BMP180;7766;51.534;6.722;2022-12-20T06:05:20;100709.41;;;11.11
15333;BMP180;7766;51.534;6.722;2022-12-20T06:06:21;100701.34;;;11.12
15333;BMP180;7766;51.534;6.722;2022-12-20T06:07:22;100702.78;;;11.15
15333;BMP180;7766;51.534;6.722;2022-12-20T06:08:22;100703.97;;;11.12
15333;BMP180;7766;51.534;6.722;2022-12-20T06:09:24;100707.03;;;11.16
15333;BMP180;7766;51.534;6.722;2022-12-20T06:10:25;100710.13;;;11.19
15333;BMP180;7766;51.534;6.722;2022-12-20T06:11:26;100704.22;;;11.17
15333;BMP180;7766;51.534;6.722;2022-12-20T06:12:27;100708.69;;;11.17
15333;BMP180;7766;51.534;6.722;2022-12-20T06:13:28;100719.25;;;11.23
15333;BMP180;7766;51.534;6.722;2022-12-20T06:14:29;100715.09;;;11.28
15333;BMP180;7766;51.534;6.722;2022-12-20T06:15:31;100719.19;;;11.31
15333;BMP180;7766;51.534;6.722;2022-12-20T06:16:32;100712.81;;;11.40
15333;BMP180;7766;51.534;6.722;2022-12-20T06:17:33;100713.75;;;11.32
15333;BMP180;7766;51.534;6.722;2022-12-20T06:18:35;100712.81;;;11.40